Springfield, MO

7:42 PM CDT on April 25, 2017 (GMT -0500)
Springfield-Branson Regional | | Change Station

Elev 1266 ft 37.24 °N, 93.39 °W | Updated 50 minutes ago

Mostly Cloudy
Mostly Cloudy
75 °F
Feels Like 75 °F
N
8
Wind Variable Wind from South

Today
High -- | Low -- °F
--% Chance of Precip.
Yesterday
High -- | Low -- °F
Precip. -- in
Pressure 29.42 in
Visibility 10.0 miles
Clouds Mostly Cloudy 5500 ft
Dew Point 59 °F
Humidity 57%
Rainfall 0.00 in
Snow Depth Not available.
6:25 AM 7:57 PM
Waning Crescent, 0% visible
METAR KSGF 252352Z 18007KT 10SM BKN055 24/15 A2945 RMK AO2 SLP962 T02390150 10272 20239 51006
Pressure 29.42 in
Visibility 10.0 miles
Clouds Mostly Cloudy 5500 ft
Dew Point 59 °F
Humidity 57%
Rainfall 0.00 in
Snow Depth Not available.
6:25 AM 7:57 PM
Waning Crescent, 0% visible
METAR KSGF 252352Z 18007KT 10SM BKN055 24/15 A2945 RMK AO2 SLP962 T02390150 10272 20239 51006

Get Severe Weather Alerts

Thanks for signing up!

Be on the lookout for a verification email in your inbox.

You'll start receiving the daily forecast at 8 AM.

×

10-Day Weather Forecast

Almanac

Astronomy

Apr. 25, 2017 Rise Set
Actual Time
Civil Twilight
Nautical Twilight
Astronomical Twilight
Moon
Length of Visible Light
Length of Day
Tomorrow will be .
, % of the Moon is Illuminated

Today's Extremes

State Highs State Lows

Community

WunderPhotos

WunderBlog® & News

Nearby

Air Quality

  Air Quality AQ Index Pollutant
Not available.

Snow Depth

Station Depth Elevation

Earthquake Activity

City Distance Mag. Time & Date
Minimum magnitude displayed is 2.5.

Coastal Water Temperatures

Place Temperature

Stations

Nearby Weather Stations

Station Location Temp. Windchill Dew Point Humidity Wind Precip. Elev Updated Type
                   

Watches & Warnings

There are currently no watches in effect.